createdAt,value
2019-01-24T00:00:41.510Z,11.81
2019-01-24T00:03:09.227Z,11.63
2019-01-24T00:05:37.056Z,11.73
2019-01-24T00:08:04.831Z,11.56
2019-01-24T00:10:32.563Z,11.66
2019-01-24T00:13:00.331Z,11.78
2019-01-24T00:15:45.490Z,11.73
2019-01-24T00:18:13.299Z,11.63
2019-01-24T00:20:41.068Z,11.64
2019-01-24T00:23:08.800Z,11.56
2019-01-24T00:25:36.530Z,11.58
2019-01-24T00:28:04.284Z,11.54
2019-01-24T00:30:32.018Z,11.59
2019-01-24T00:32:59.755Z,11.64
2019-01-24T00:35:27.479Z,10.38
2019-01-24T00:37:55.231Z,11.51
2019-01-24T00:40:22.970Z,11.44
2019-01-24T00:42:50.691Z,11.53
2019-01-24T00:45:18.412Z,11.42
2019-01-24T00:47:46.131Z,11.50
2019-01-24T00:50:26.451Z,11.51
2019-01-24T00:52:51.583Z,11.61
2019-01-24T00:55:19.314Z,10.33
2019-01-24T00:57:47.069Z,11.64
2019-01-24T01:00:19.107Z,11.56
2019-01-24T01:02:46.851Z,11.55
2019-01-24T01:05:14.615Z,10.71
2019-01-24T01:07:42.363Z,11.56
2019-01-24T01:10:10.203Z,11.62
2019-01-24T01:12:37.986Z,11.55
2019-01-24T01:15:06.578Z,11.56
2019-01-24T01:17:34.296Z,11.53
2019-01-24T01:20:02.014Z,11.44
2019-01-24T01:22:29.734Z,11.47
2019-01-24T01:24:57.486Z,11.49
2019-01-24T01:27:42.784Z,11.44
2019-01-24T01:30:11.884Z,11.49
2019-01-24T01:32:39.768Z,11.44
2019-01-24T01:35:07.555Z,11.42
2019-01-24T01:37:35.524Z,11.38
2019-01-24T01:40:04.885Z,11.35
2019-01-24T01:42:32.627Z,11.34
2019-01-24T01:45:00.347Z,11.35
2019-01-24T01:47:28.083Z,11.39
2019-01-24T01:49:55.787Z,11.37
2019-01-24T01:52:23.527Z,11.31
2019-01-24T01:54:51.302Z,11.42
2019-01-24T01:57:19.187Z,11.37
2019-01-24T01:59:46.914Z,10.52
2019-01-24T02:02:25.312Z,11.38
2019-01-24T02:04:48.899Z,11.44
2019-01-24T02:07:16.659Z,11.42
2019-01-24T02:09:44.432Z,11.41
2019-01-24T02:12:12.191Z,11.40
2019-01-24T02:14:39.913Z,11.23
2019-01-24T02:17:07.643Z,11.33
2019-01-24T02:19:35.366Z,11.30
2019-01-24T02:22:03.123Z,11.29
2019-01-24T02:24:30.842Z,11.34
2019-01-24T02:26:58.565Z,11.35
2019-01-24T02:29:26.300Z,11.40
2019-01-24T02:31:54.078Z,11.32
2019-01-24T02:34:21.791Z,11.38
2019-01-24T02:36:49.547Z,11.40
2019-01-24T02:39:17.372Z,11.30
2019-01-24T02:42:18.811Z,11.41
2019-01-24T02:45:08.333Z,11.29
2019-01-24T02:47:36.068Z,11.26
2019-01-24T02:50:04.399Z,11.11
2019-01-24T02:52:32.132Z,11.28
2019-01-24T02:55:10.937Z,11.33
2019-01-24T02:57:35.934Z,11.31
2019-01-24T03:00:03.912Z,11.32
2019-01-24T03:02:31.712Z,11.29
2019-01-24T03:04:59.436Z,11.32
2019-01-24T03:07:27.414Z,11.35
2019-01-24T03:09:55.154Z,11.35
2019-01-24T03:12:22.863Z,10.96
2019-01-24T03:14:50.667Z,11.33
2019-01-24T03:17:18.767Z,11.10
2019-01-24T03:19:46.491Z,11.31
2019-01-24T03:22:14.222Z,11.36
2019-01-24T03:24:41.970Z,11.34
2019-01-24T03:27:09.753Z,11.30
2019-01-24T03:29:37.490Z,11.26
2019-01-24T03:32:05.298Z,11.17
2019-01-24T03:34:50.472Z,11.15
2019-01-24T03:37:18.243Z,11.14
2019-01-24T03:39:45.986Z,11.19
2019-01-24T03:42:13.840Z,11.23
2019-01-24T03:44:41.576Z,11.28
2019-01-24T03:47:09.387Z,11.21
2019-01-24T03:49:37.132Z,11.15
2019-01-24T03:52:05.022Z,11.11
2019-01-24T03:54:32.787Z,11.17
2019-01-24T03:57:00.534Z,10.93
2019-01-24T03:59:28.528Z,11.19
2019-01-24T04:01:56.274Z,11.22
2019-01-24T04:04:24.003Z,11.26
2019-01-24T04:06:51.763Z,11.24
2019-01-24T04:09:19.508Z,11.20
2019-01-24T04:11:57.822Z,11.24
2019-01-24T04:14:25.575Z,11.26
2019-01-24T04:16:53.403Z,11.22
2019-01-24T04:19:21.168Z,11.24
2019-01-24T04:21:48.899Z,11.25
2019-01-24T04:24:16.690Z,11.28
2019-01-24T04:26:44.440Z,11.22
2019-01-24T04:29:12.182Z,11.23
2019-01-24T04:31:39.942Z,11.26
2019-01-24T04:34:07.663Z,11.25
2019-01-24T04:36:35.438Z,11.21
2019-01-24T04:39:03.359Z,11.17
2019-01-24T04:41:31.136Z,11.16
2019-01-24T04:43:58.871Z,11.25
2019-01-24T04:46:26.610Z,11.21
2019-01-24T04:48:59.115Z,11.19
2019-01-24T04:51:33.142Z,11.15
2019-01-24T04:54:01.135Z,11.14
2019-01-24T04:56:28.940Z,11.18
2019-01-24T04:58:56.753Z,11.17
2019-01-24T05:01:24.534Z,11.14
2019-01-24T05:03:52.246Z,11.20
2019-01-24T05:06:20.232Z,11.12
2019-01-24T05:08:47.960Z,11.12
2019-01-24T05:11:15.710Z,11.11
2019-01-24T05:13:43.555Z,11.09
2019-01-24T05:16:11.276Z,10.77
2019-01-24T05:18:38.988Z,11.07
2019-01-24T05:21:07.695Z,11.05
2019-01-24T05:23:35.580Z,11.03
2019-01-24T05:26:03.295Z,11.02
2019-01-24T05:28:31.038Z,11.09
2019-01-24T05:31:08.671Z,11.08
2019-01-24T05:33:36.471Z,10.98
2019-01-24T05:36:04.295Z,11.05
2019-01-24T05:38:32.514Z,11.02
2019-01-24T05:41:00.290Z,10.99
2019-01-24T05:43:28.031Z,11.00
2019-01-24T05:45:55.776Z,11.00
2019-01-24T05:48:23.544Z,10.69
2019-01-24T05:50:51.636Z,10.07
2019-01-24T05:53:19.460Z,10.50
2019-01-24T05:55:47.199Z,10.77
2019-01-24T05:58:15.112Z,10.90
2019-01-24T06:00:44.003Z,10.90
2019-01-24T06:03:11.748Z,10.54
2019-01-24T06:05:41.934Z,10.48
2019-01-24T06:08:19.986Z,10.63
2019-01-24T06:10:47.864Z,10.86
2019-01-24T06:13:16.728Z,10.88
2019-01-24T06:15:44.635Z,10.87
2019-01-24T06:18:12.372Z,10.64
2019-01-24T06:20:40.211Z,10.70
2019-01-24T06:23:07.940Z,10.21
2019-01-24T06:25:35.762Z,10.80
2019-01-24T06:28:03.598Z,11.03
2019-01-24T06:30:31.421Z,11.14
2019-01-24T06:32:59.409Z,11.16
2019-01-24T06:35:27.148Z,11.20
2019-01-24T06:37:54.896Z,11.11
2019-01-24T06:40:24.435Z,11.29
2019-01-24T06:43:06.668Z,11.40
2019-01-24T06:45:27.976Z,11.35
2019-01-24T06:47:55.743Z,11.32
2019-01-24T06:50:23.484Z,11.31
2019-01-24T06:52:51.203Z,11.22
2019-01-24T06:55:23.156Z,11.36
2019-01-24T06:57:50.884Z,11.12
2019-01-24T07:00:18.686Z,11.32
2019-01-24T07:02:46.440Z,11.19
2019-01-24T07:05:14.194Z,11.18
2019-01-24T07:07:41.916Z,11.19
2019-01-24T07:10:11.187Z,11.16
2019-01-24T07:12:38.967Z,11.23
2019-01-24T07:15:07.934Z,11.19
2019-01-24T07:17:35.781Z,10.92
2019-01-24T07:20:22.864Z,10.57
2019-01-24T07:22:50.917Z,11.05
2019-01-24T07:25:19.697Z,11.23
2019-01-24T07:27:47.482Z,11.15
2019-01-24T07:30:15.616Z,10.81
2019-01-24T07:32:44.365Z,11.03
2019-01-24T07:35:12.295Z,11.08
2019-01-24T07:37:40.073Z,11.04
2019-01-24T07:40:08.395Z,11.01
2019-01-24T07:42:36.134Z,11.00
2019-01-24T07:45:04.355Z,11.03
2019-01-24T07:47:32.111Z,11.07
2019-01-24T07:49:59.926Z,11.12
2019-01-24T07:52:27.789Z,11.19
2019-01-24T07:55:05.564Z,11.22
2019-01-24T07:57:33.555Z,11.14
2019-01-24T08:00:01.435Z,11.22
2019-01-24T08:02:29.203Z,11.25
2019-01-24T08:04:56.952Z,11.14
2019-01-24T08:07:24.998Z,11.24
2019-01-24T08:09:52.863Z,11.09
2019-01-24T08:12:20.708Z,11.26
2019-01-24T08:14:48.529Z,11.11
2019-01-24T08:17:24.116Z,11.18
2019-01-24T08:19:51.896Z,11.22
2019-01-24T08:22:19.667Z,11.23
2019-01-24T08:24:47.392Z,11.14
2019-01-24T08:30:04.551Z,11.24
2019-01-24T08:32:32.332Z,11.22
2019-01-24T08:35:00.167Z,11.21
2019-01-24T08:37:27.996Z,11.16
2019-01-24T08:39:55.836Z,11.19
2019-01-24T08:42:23.647Z,11.04
2019-01-24T08:44:51.435Z,11.22
2019-01-24T08:47:19.627Z,11.18
2019-01-24T08:49:47.395Z,11.16
2019-01-24T08:52:15.176Z,11.27
2019-01-24T08:54:42.987Z,11.28
2019-01-24T08:57:10.778Z,11.23
2019-01-24T08:59:52.130Z,10.84
2019-01-24T09:02:20.179Z,11.20
2019-01-24T09:04:47.948Z,11.19
2019-01-24T09:07:15.760Z,11.05
2019-01-24T09:09:43.523Z,11.12
2019-01-24T09:12:11.356Z,11.12
2019-01-24T09:14:39.274Z,11.14
2019-01-24T09:17:07.122Z,11.15
2019-01-24T09:19:34.883Z,11.14
2019-01-24T09:22:02.839Z,11.22
2019-01-24T09:24:30.585Z,11.30
2019-01-24T09:26:58.516Z,11.29
2019-01-24T09:29:26.269Z,10.28
2019-01-24T09:31:54.118Z,11.22
2019-01-24T09:34:37.529Z,11.22
2019-01-24T09:37:05.350Z,11.25
2019-01-24T09:39:33.155Z,11.21
2019-01-24T09:42:00.991Z,11.23
2019-01-24T09:44:28.788Z,11.25
2019-01-24T09:46:56.527Z,11.20
2019-01-24T09:49:26.424Z,11.19
2019-01-24T09:51:54.249Z,11.30
2019-01-24T09:54:22.079Z,11.24
2019-01-24T09:56:49.901Z,11.12
2019-01-24T09:59:17.684Z,11.18
2019-01-24T10:01:45.468Z,11.25
2019-01-24T10:04:13.251Z,11.27
2019-01-24T10:06:42.297Z,11.31
2019-01-24T10:09:19.232Z,11.31
2019-01-24T10:11:47.017Z,11.31
2019-01-24T10:14:14.747Z,11.22
2019-01-24T10:16:42.799Z,11.31
2019-01-24T10:19:10.548Z,11.38
2019-01-24T10:21:38.336Z,11.35
2019-01-24T10:24:06.204Z,11.30
2019-01-24T10:26:33.951Z,11.26
2019-01-24T10:29:01.759Z,10.89
2019-01-24T10:31:29.750Z,11.35
2019-01-24T10:33:57.634Z,11.40
2019-01-24T10:36:25.416Z,11.38
2019-01-24T10:38:53.236Z,11.24
2019-01-24T10:41:21.001Z,11.31
2019-01-24T10:44:05.325Z,11.33
2019-01-24T10:46:33.054Z,11.16
2019-01-24T10:49:00.941Z,11.32
2019-01-24T10:51:28.884Z,11.35
2019-01-24T10:53:56.685Z,11.32
2019-01-24T10:56:24.503Z,11.40
2019-01-24T10:58:52.553Z,11.35
2019-01-24T11:01:20.348Z,11.37
2019-01-24T11:03:48.167Z,11.39
2019-01-24T11:06:16.011Z,11.40
2019-01-24T11:08:43.876Z,11.34
2019-01-24T11:11:11.691Z,11.47
2019-01-24T11:13:39.492Z,11.50
2019-01-24T11:16:07.334Z,11.44
2019-01-24T11:18:55.406Z,11.44
2019-01-24T11:21:23.452Z,11.38
2019-01-24T11:23:51.344Z,11.49
2019-01-24T11:26:19.143Z,11.51
2019-01-24T11:28:46.975Z,11.53
2019-01-24T11:31:14.770Z,11.52
2019-01-24T11:33:42.600Z,11.41
2019-01-24T11:36:10.406Z,11.47
2019-01-24T11:38:38.199Z,11.45
2019-01-24T11:41:06.554Z,11.55
2019-01-24T11:43:34.408Z,11.55
2019-01-24T11:46:02.175Z,11.51
2019-01-24T11:48:29.963Z,11.51
2019-01-24T11:53:34.699Z,11.54
2019-01-24T11:56:02.739Z,11.57
2019-01-24T11:58:30.621Z,11.31
2019-01-24T12:00:58.398Z,11.63
2019-01-24T12:03:26.181Z,11.58
2019-01-24T12:05:54.051Z,11.60
2019-01-24T12:08:21.884Z,11.62
2019-01-24T12:10:49.680Z,11.43
2019-01-24T12:13:17.536Z,11.56
2019-01-24T12:15:45.335Z,11.60
2019-01-24T12:18:13.154Z,11.54
2019-01-24T12:20:40.972Z,11.67
2019-01-24T12:23:08.841Z,11.61
2019-01-24T12:25:36.655Z,11.67
2019-01-24T12:28:17.906Z,11.59
2019-01-24T12:30:43.950Z,11.66
2019-01-24T12:33:11.928Z,11.20
2019-01-24T12:35:39.918Z,11.64
2019-01-24T12:38:07.707Z,11.62
2019-01-24T12:40:36.373Z,11.58
2019-01-24T12:43:04.363Z,11.39
2019-01-24T12:45:33.252Z,11.63
2019-01-24T12:48:01.070Z,11.51
2019-01-24T12:50:28.856Z,11.53
2019-01-24T12:52:56.736Z,11.69
2019-01-24T12:55:24.616Z,11.71
2019-01-24T12:57:52.515Z,11.83
2019-01-24T13:00:21.341Z,11.31
2019-01-24T13:02:49.152Z,11.81
2019-01-24T13:05:36.175Z,11.49
2019-01-24T13:08:03.980Z,11.69
2019-01-24T13:10:38.512Z,11.85
2019-01-24T13:13:06.665Z,11.59
2019-01-24T13:15:34.535Z,11.55
2019-01-24T13:18:02.297Z,11.70
2019-01-24T13:20:30.051Z,11.83
2019-01-24T13:22:57.852Z,11.92
2019-01-24T13:25:26.897Z,11.99
2019-01-24T13:27:54.714Z,11.92
2019-01-24T13:30:23.404Z,11.98
2019-01-24T13:33:08.668Z,11.82
2019-01-24T13:35:36.578Z,11.93
2019-01-24T13:38:04.782Z,12.00
2019-01-24T13:40:32.598Z,11.46
2019-01-24T13:43:00.910Z,11.68
2019-01-24T13:45:29.709Z,11.67
2019-01-24T13:47:57.584Z,11.79
2019-01-24T13:50:25.489Z,11.88
2019-01-24T13:52:53.406Z,11.78
2019-01-24T13:55:21.324Z,11.91
2019-01-24T13:57:49.183Z,11.97
2019-01-24T14:00:21.657Z,12.02
2019-01-24T14:03:08.132Z,11.97
2019-01-24T14:05:36.002Z,12.05
2019-01-24T14:08:03.916Z,12.08
2019-01-24T14:10:31.773Z,12.07
2019-01-24T14:12:59.599Z,12.10
2019-01-24T14:15:27.420Z,12.06
2019-01-24T14:17:55.266Z,12.09
2019-01-24T14:20:23.071Z,12.20
2019-01-24T14:22:50.880Z,12.15
2019-01-24T14:25:18.692Z,12.12
2019-01-24T14:27:46.507Z,12.17
2019-01-24T14:30:18.996Z,12.12
2019-01-24T14:33:04.295Z,12.10
2019-01-24T14:35:32.500Z,12.09
2019-01-24T14:38:00.577Z,12.09
2019-01-24T14:40:28.476Z,12.15
2019-01-24T14:42:56.286Z,12.15
2019-01-24T14:45:24.150Z,12.15
2019-01-24T14:47:52.030Z,12.18
2019-01-24T14:50:20.649Z,12.18
2019-01-24T14:52:48.522Z,12.16
2019-01-24T14:55:16.434Z,12.21
2019-01-24T14:57:44.293Z,12.13
2019-01-24T15:00:34.077Z,12.14
2019-01-24T15:03:01.961Z,12.22
2019-01-24T15:05:29.781Z,12.23
2019-01-24T15:07:57.659Z,12.24
2019-01-24T15:10:25.566Z,12.24
2019-01-24T15:12:53.492Z,12.30
2019-01-24T15:15:21.555Z,11.99
2019-01-24T15:17:49.422Z,12.18
2019-01-24T15:20:17.319Z,12.20
2019-01-24T15:22:45.716Z,12.25
2019-01-24T15:25:13.552Z,12.29
2019-01-24T15:27:41.403Z,12.01
2019-01-24T15:30:11.039Z,12.27
2019-01-24T15:32:38.903Z,12.31
2019-01-24T15:35:26.043Z,12.32
2019-01-24T15:37:54.625Z,12.27
2019-01-24T15:40:24.264Z,11.64
2019-01-24T15:42:52.086Z,11.94
2019-01-24T15:45:19.940Z,12.18
2019-01-24T15:47:47.858Z,12.23
2019-01-24T15:50:16.282Z,11.94
2019-01-24T15:52:44.140Z,12.18
2019-01-24T15:55:12.016Z,12.20
2019-01-24T15:57:39.902Z,12.30
2019-01-24T16:00:09.500Z,12.33
2019-01-24T16:02:37.412Z,12.36
2019-01-24T16:05:23.544Z,12.32
2019-01-24T16:07:51.506Z,11.76
2019-01-24T16:10:19.746Z,12.35
2019-01-24T16:12:47.723Z,12.27
2019-01-24T16:15:16.809Z,12.27
2019-01-24T16:17:45.091Z,12.32
2019-01-24T16:20:14.315Z,12.23
2019-01-24T16:22:42.599Z,12.33
2019-01-24T16:25:10.996Z,12.34
2019-01-24T16:27:39.056Z,12.40
2019-01-24T16:30:08.156Z,12.32
2019-01-24T16:32:36.235Z,12.38
2019-01-24T16:35:16.434Z,12.49
2019-01-24T16:37:40.570Z,12.45
2019-01-24T16:40:09.520Z,12.49
2019-01-24T16:42:38.140Z,12.50
2019-01-24T16:45:07.176Z,12.50
2019-01-24T16:47:35.284Z,12.44
2019-01-24T16:50:03.212Z,12.46
2019-01-24T16:52:31.288Z,12.43
2019-01-24T16:54:59.069Z,12.45
2019-01-24T16:57:27.547Z,12.45
2019-01-24T16:59:55.808Z,12.47
2019-01-24T17:02:23.704Z,12.50
2019-01-24T17:04:51.941Z,12.50
2019-01-24T17:07:23.644Z,12.50
2019-01-24T17:10:03.604Z,12.43
2019-01-24T17:12:31.872Z,12.52
2019-01-24T17:14:59.952Z,12.51
2019-01-24T17:17:31.354Z,12.33
2019-01-24T17:19:58.927Z,12.59
2019-01-24T17:22:27.070Z,12.52
2019-01-24T17:24:55.355Z,12.56
2019-01-24T17:27:23.357Z,12.59
2019-01-24T17:29:51.351Z,12.48
2019-01-24T17:32:19.519Z,12.55
2019-01-24T17:34:47.787Z,12.59
2019-01-24T17:37:15.584Z,12.57
2019-01-24T17:39:43.827Z,12.62
2019-01-24T17:42:11.893Z,12.59
2019-01-24T17:44:56.397Z,12.60
2019-01-24T17:47:14.308Z,12.62
2019-01-24T17:49:42.535Z,12.61
2019-01-24T17:52:10.764Z,12.69
2019-01-24T17:54:39.003Z,12.66
2019-01-24T17:57:07.055Z,12.65
2019-01-24T17:59:35.054Z,12.65
2019-01-24T18:02:03.660Z,12.62
2019-01-24T18:04:31.659Z,12.64
2019-01-24T18:07:00.356Z,12.54
2019-01-24T18:09:28.370Z,12.62
2019-01-24T18:11:56.704Z,12.67
2019-01-24T18:14:25.147Z,12.69
2019-01-24T18:16:52.882Z,12.55
2019-01-24T18:19:20.620Z,12.56
2019-01-24T18:21:48.364Z,12.58
2019-01-24T18:24:17.792Z,12.67
2019-01-24T18:26:52.619Z,12.64
2019-01-24T18:29:20.462Z,12.67
2019-01-24T18:31:48.272Z,12.64
2019-01-24T18:34:17.156Z,12.39
2019-01-24T18:36:45.401Z,12.29
2019-01-24T18:39:13.686Z,12.47
2019-01-24T18:41:41.719Z,12.60
2019-01-24T18:44:09.464Z,12.62
2019-01-24T18:46:37.443Z,12.67
2019-01-24T18:49:05.208Z,12.70
2019-01-24T18:51:32.983Z,12.63
2019-01-24T18:54:00.735Z,12.75
2019-01-24T18:56:29.021Z,12.69
2019-01-24T18:58:57.062Z,12.71
2019-01-24T19:01:52.953Z,12.73
2019-01-24T19:04:20.736Z,12.69
2019-01-24T19:06:48.799Z,12.43
2019-01-24T19:09:16.555Z,11.93
2019-01-24T19:11:47.478Z,11.78
2019-01-24T19:14:15.861Z,11.98
2019-01-24T19:16:43.631Z,12.25
2019-01-24T19:19:11.364Z,12.08
2019-01-24T19:21:39.099Z,12.47
2019-01-24T19:24:06.883Z,12.58
2019-01-24T19:26:34.912Z,12.60
2019-01-24T19:29:02.728Z,12.61
2019-01-24T19:31:45.051Z,12.34
2019-01-24T19:34:12.957Z,12.70
2019-01-24T19:36:41.588Z,12.49
2019-01-24T19:39:09.315Z,12.59
2019-01-24T19:41:37.149Z,12.71
2019-01-24T19:44:05.204Z,12.77
2019-01-24T19:46:33.519Z,12.68
2019-01-24T19:49:01.597Z,12.67
2019-01-24T19:51:29.318Z,12.84
2019-01-24T19:53:57.448Z,12.70
2019-01-24T19:56:25.474Z,12.53
2019-01-24T19:58:53.228Z,12.29
2019-01-24T20:01:20.963Z,12.17
2019-01-24T20:07:05.709Z,12.63
2019-01-24T20:09:33.517Z,12.27
2019-01-24T20:12:06.712Z,11.96
2019-01-24T20:14:34.830Z,11.88
2019-01-24T20:17:21.341Z,12.06
2019-01-24T20:19:49.371Z,11.97
2019-01-24T20:22:17.772Z,12.07
2019-01-24T20:24:46.316Z,12.00
2019-01-24T20:27:14.521Z,12.40
2019-01-24T20:29:42.577Z,12.61
2019-01-24T20:32:10.454Z,12.51
2019-01-24T20:34:38.510Z,12.65
2019-01-24T20:37:06.580Z,12.56
2019-01-24T20:39:34.781Z,12.64
2019-01-24T20:42:03.241Z,12.29
2019-01-24T20:44:31.174Z,12.24
2019-01-24T20:46:59.805Z,12.40
2019-01-24T20:49:38.552Z,11.51
2019-01-24T20:52:06.995Z,12.32
2019-01-24T20:54:35.069Z,11.98
2019-01-24T20:57:03.130Z,11.98
2019-01-24T20:59:31.797Z,12.08
2019-01-24T21:02:00.055Z,12.34
2019-01-24T21:04:28.091Z,12.39
2019-01-24T21:06:56.475Z,12.36
2019-01-24T21:09:25.606Z,12.44
2019-01-24T21:11:53.712Z,12.70
2019-01-24T21:14:26.545Z,12.77
2019-01-24T21:16:54.468Z,12.78
2019-01-24T21:19:42.219Z,12.78
2019-01-24T21:22:10.293Z,12.82
2019-01-24T21:24:38.098Z,12.66
2019-01-24T21:27:06.541Z,12.76
2019-01-24T21:29:34.571Z,12.58
2019-01-24T21:32:02.832Z,12.69
2019-01-24T21:34:30.641Z,12.74
2019-01-24T21:36:58.468Z,12.83
2019-01-24T21:52:59.164Z,11.82
2019-01-24T22:02:02.415Z,11.83
2019-01-24T22:04:31.062Z,11.86
2019-01-24T22:06:59.846Z,11.75
2019-01-24T22:09:29.205Z,12.45
2019-01-24T22:12:08.480Z,12.49
2019-01-24T22:14:36.389Z,12.29
2019-01-24T22:17:30.653Z,12.02
2019-01-24T22:20:00.798Z,11.63
2019-01-24T22:29:23.406Z,12.17
2019-01-24T22:31:51.259Z,12.29
2019-01-24T22:34:19.302Z,11.90
2019-01-24T22:36:49.248Z,11.81
2019-01-24T22:39:17.532Z,11.80
2019-01-24T22:41:45.557Z,11.96
2019-01-24T22:44:13.712Z,12.02
2019-01-24T22:46:41.875Z,12.14
2019-01-24T22:49:10.266Z,10.88
2019-01-24T22:51:38.404Z,12.25
2019-01-24T22:54:06.248Z,12.39
2019-01-24T22:56:35.499Z,12.45
2019-01-24T22:59:17.549Z,12.62
2019-01-24T23:01:47.369Z,12.67
2019-01-24T23:04:16.817Z,12.75
2019-01-24T23:06:44.651Z,12.78
2019-01-24T23:09:12.437Z,12.45
2019-01-24T23:11:40.829Z,12.20
2019-01-24T23:14:09.001Z,11.90
2019-01-24T23:16:36.791Z,10.53
2019-01-24T23:19:04.667Z,11.56
2019-01-24T23:21:32.904Z,11.50
2019-01-24T23:26:29.298Z,11.36
2019-01-24T23:29:09.953Z,11.73
2019-01-24T23:31:57.156Z,11.57
2019-01-24T23:34:25.004Z,12.06
2019-01-24T23:36:52.788Z,11.81
2019-01-24T23:39:21.080Z,12.03
2019-01-24T23:41:49.124Z,12.11
2019-01-24T23:44:17.308Z,11.99
2019-01-24T23:46:45.623Z,12.06
2019-01-24T23:49:13.445Z,11.98
2019-01-24T23:51:42.059Z,12.03
2019-01-24T23:54:28.477Z,12.06
2019-01-24T23:56:56.856Z,12.20
2019-01-24T23:59:26.958Z,12.36
